createdAt,value
2018-11-26T00:01:13.433Z,14.90
2018-11-26T00:03:41.481Z,5.57
2018-11-26T00:06:09.529Z,14.37
2018-11-26T00:08:37.678Z,10.63
2018-11-26T00:11:43.689Z,14.50
2018-11-26T00:14:11.791Z,8.70
2018-11-26T00:16:39.969Z,10.87
2018-11-26T00:19:07.985Z,19.50
2018-11-26T00:21:36.279Z,16.67
2018-11-26T00:24:05.694Z,17.47
2018-11-26T00:26:33.755Z,19.00
2018-11-26T00:29:01.800Z,17.97
2018-11-26T00:31:29.834Z,17.90
2018-11-26T00:33:57.882Z,17.73
2018-11-26T00:36:26.147Z,19.70
2018-11-26T00:38:54.223Z,11.20
2018-11-26T00:41:22.277Z,10.97
2018-11-26T00:43:50.360Z,15.17
2018-11-26T00:46:18.649Z,17.53
2018-11-26T00:48:46.712Z,21.23
2018-11-26T00:51:14.807Z,9.13
2018-11-26T00:53:42.849Z,16.50
2018-11-26T00:56:10.985Z,14.77
2018-11-26T00:58:39.411Z,19.50
2018-11-26T01:01:07.469Z,13.70
2018-11-26T01:03:35.702Z,16.50
2018-11-26T01:06:03.841Z,9.80
2018-11-26T01:08:31.885Z,21.90
2018-11-26T01:10:59.958Z,19.13
2018-11-26T01:13:28.132Z,17.30
2018-11-26T01:15:56.223Z,16.93
2018-11-26T01:18:24.269Z,17.43
2018-11-26T01:20:52.495Z,9.27
2018-11-26T01:23:20.626Z,7.43
2018-11-26T01:25:48.787Z,16.10
2018-11-26T01:28:16.891Z,21.23
2018-11-26T01:30:45.034Z,15.07
2018-11-26T01:33:13.270Z,17.30
2018-11-26T01:35:41.574Z,17.63
2018-11-26T01:38:09.724Z,16.33
2018-11-26T01:40:43.269Z,13.63
2018-11-26T01:43:11.310Z,19.93
2018-11-26T01:45:39.382Z,14.53
2018-11-26T01:48:07.882Z,6.23
2018-11-26T01:50:36.031Z,9.63
2018-11-26T01:53:04.621Z,14.73
2018-11-26T01:55:32.769Z,21.00
2018-11-26T01:58:00.940Z,11.63
2018-11-26T02:00:29.975Z,15.30
2018-11-26T02:02:58.113Z,17.20
2018-11-26T02:05:26.209Z,19.10
2018-11-26T02:07:54.483Z,18.27
2018-11-26T02:10:22.637Z,18.93
2018-11-26T02:12:50.683Z,17.83
2018-11-26T02:15:30.385Z,21.77
2018-11-26T02:17:58.428Z,14.40
2018-11-26T02:20:26.476Z,19.87
2018-11-26T02:22:54.579Z,14.87
2018-11-26T02:25:22.653Z,12.60
2018-11-26T02:27:50.730Z,11.93
2018-11-26T02:30:19.170Z,19.43
2018-11-26T02:32:47.197Z,10.07
2018-11-26T02:35:15.258Z,12.73
2018-11-26T02:37:46.247Z,17.37
2018-11-26T02:40:21.409Z,7.87
2018-11-26T02:42:49.689Z,8.17
2018-11-26T02:45:17.847Z,15.37
2018-11-26T02:47:45.905Z,16.67
2018-11-26T02:50:14.664Z,16.73
2018-11-26T02:52:42.718Z,8.73
2018-11-26T02:55:10.830Z,7.40
2018-11-26T02:57:39.061Z,9.30
2018-11-26T03:00:08.997Z,6.53
2018-11-26T03:02:37.046Z,15.40
2018-11-26T03:05:06.257Z,14.63
2018-11-26T03:07:34.303Z,5.33
2018-11-26T03:10:02.494Z,13.43
2018-11-26T03:12:30.610Z,11.07
2018-11-26T03:14:58.696Z,15.53
2018-11-26T03:17:26.764Z,13.73
2018-11-26T03:19:54.805Z,4.60
2018-11-26T03:22:22.872Z,9.23
2018-11-26T03:24:51.086Z,13.07
2018-11-26T03:27:19.183Z,8.53
2018-11-26T03:29:48.071Z,8.05
2018-11-26T03:32:16.574Z,10.50
2018-11-26T03:34:44.680Z,5.90
2018-11-26T03:37:12.887Z,7.07
2018-11-26T03:39:41.436Z,7.33
2018-11-26T03:42:09.508Z,7.47
2018-11-26T03:44:37.583Z,4.30
2018-11-26T03:47:05.697Z,6.90
2018-11-26T03:49:33.756Z,9.47
2018-11-26T03:52:01.962Z,3.57
2018-11-26T03:54:30.946Z,6.70
2018-11-26T03:56:59.034Z,8.60
2018-11-26T03:59:27.077Z,10.80
2018-11-26T04:01:55.399Z,14.27
2018-11-26T04:04:23.441Z,5.30
2018-11-26T04:06:51.514Z,5.90
2018-11-26T04:09:19.627Z,7.13
2018-11-26T04:11:47.746Z,4.07
2018-11-26T04:14:15.812Z,10.27
2018-11-26T04:16:44.222Z,13.27
2018-11-26T04:19:12.321Z,12.77
2018-11-26T04:21:40.357Z,12.93
2018-11-26T04:24:08.449Z,14.70
2018-11-26T04:26:36.486Z,18.10
2018-11-26T04:29:04.742Z,15.80
2018-11-26T04:31:32.803Z,16.53
2018-11-26T04:34:00.829Z,15.70
2018-11-26T04:36:28.928Z,16.33
2018-11-26T04:38:57.364Z,16.57
2018-11-26T04:41:25.447Z,15.53
2018-11-26T04:43:53.524Z,13.67
2018-11-26T04:46:21.684Z,14.47
2018-11-26T04:48:49.723Z,13.53
2018-11-26T04:51:17.839Z,10.07
2018-11-26T04:53:46.152Z,14.33
2018-11-26T04:56:14.194Z,13.83
2018-11-26T04:58:42.287Z,13.13
2018-11-26T05:01:10.345Z,16.73
2018-11-26T05:03:38.380Z,12.83
2018-11-26T05:06:06.433Z,6.87
2018-11-26T05:08:34.596Z,15.50
2018-11-26T05:11:02.694Z,8.73
2018-11-26T05:13:30.778Z,13.57
2018-11-26T05:15:59.254Z,12.67
2018-11-26T05:18:27.328Z,14.30
2018-11-26T05:20:55.501Z,14.83
2018-11-26T05:23:23.574Z,11.50
2018-11-26T05:25:51.632Z,15.27
2018-11-26T05:28:19.744Z,16.37
2018-11-26T05:30:47.837Z,15.10
2018-11-26T05:33:15.861Z,11.80
2018-11-26T05:35:43.935Z,14.43
2018-11-26T05:38:12.032Z,15.50
2018-11-26T05:40:40.114Z,14.47
2018-11-26T05:43:08.208Z,14.90
2018-11-26T05:45:36.512Z,10.67
2018-11-26T05:48:04.708Z,15.93
2018-11-26T05:50:32.892Z,15.73
2018-11-26T05:53:01.074Z,11.73
2018-11-26T05:55:29.601Z,12.33
2018-11-26T05:57:57.669Z,17.20
2018-11-26T06:00:32.430Z,15.37
2018-11-26T06:03:00.468Z,15.43
2018-11-26T06:05:28.553Z,14.37
2018-11-26T06:07:57.005Z,16.87
2018-11-26T06:10:25.132Z,16.60
2018-11-26T06:12:53.323Z,16.00
2018-11-26T06:15:21.557Z,19.13
2018-11-26T06:17:49.738Z,18.63
2018-11-26T06:20:17.900Z,16.67
2018-11-26T06:22:46.984Z,16.83
2018-11-26T06:25:17.123Z,18.67
2018-11-26T06:27:46.054Z,16.80
2018-11-26T06:30:16.292Z,16.70
2018-11-26T06:32:44.567Z,11.33
2018-11-26T06:35:21.534Z,19.50
2018-11-26T06:37:49.639Z,16.43
2018-11-26T06:40:17.708Z,17.80
2018-11-26T06:42:45.823Z,16.67
2018-11-26T06:45:15.013Z,15.60
2018-11-26T06:47:43.134Z,11.37
2018-11-26T06:50:12.516Z,19.57
2018-11-26T06:52:40.634Z,20.33
2018-11-26T06:55:10.373Z,12.17
2018-11-26T06:57:38.697Z,16.57
2018-11-26T07:00:09.188Z,19.43
2018-11-26T07:02:37.248Z,16.57
2018-11-26T07:05:08.884Z,16.10
2018-11-26T07:07:36.959Z,14.13
2018-11-26T07:10:05.610Z,17.53
2018-11-26T07:12:33.675Z,11.63
2018-11-26T07:15:02.105Z,13.73
2018-11-26T07:17:30.176Z,18.60
2018-11-26T07:19:58.259Z,8.13
2018-11-26T07:22:26.400Z,19.90
2018-11-26T07:24:54.460Z,20.87
2018-11-26T07:27:22.529Z,19.87
2018-11-26T07:29:50.601Z,16.90
2018-11-26T07:32:18.669Z,19.90
2018-11-26T07:34:47.334Z,19.15
2018-11-26T07:37:15.416Z,7.57
2018-11-26T07:39:43.493Z,12.90
2018-11-26T07:42:11.573Z,19.13
2018-11-26T07:44:40.410Z,19.07
2018-11-26T07:47:08.492Z,12.10
2018-11-26T07:49:36.672Z,18.60
2018-11-26T07:52:05.740Z,21.00
2018-11-26T07:54:34.091Z,17.93
2018-11-26T07:57:02.216Z,15.33
2018-11-26T07:59:30.651Z,16.17
2018-11-26T08:01:58.750Z,17.23
2018-11-26T08:04:26.777Z,10.83
2018-11-26T08:06:54.876Z,18.87
2018-11-26T08:09:22.912Z,12.03
2018-11-26T08:11:50.975Z,8.47
2018-11-26T08:14:19.091Z,14.87
2018-11-26T08:16:47.197Z,16.67
2018-11-26T08:19:16.537Z,16.27
2018-11-26T08:21:44.709Z,19.93
2018-11-26T08:24:12.799Z,18.30
2018-11-26T08:26:40.851Z,19.73
2018-11-26T08:29:09.056Z,13.47
2018-11-26T08:31:37.126Z,14.80
2018-11-26T08:34:05.466Z,18.17
2018-11-26T08:36:39.205Z,16.80
2018-11-26T08:39:10.658Z,14.90
2018-11-26T08:41:43.058Z,8.67
2018-11-26T08:44:12.226Z,12.93
2018-11-26T08:46:45.880Z,12.67
2018-11-26T08:49:20.131Z,11.23
2018-11-26T08:51:48.620Z,12.17
2018-11-26T08:54:16.769Z,11.20
2018-11-26T08:56:44.797Z,14.50
2018-11-26T08:59:13.303Z,12.20
2018-11-26T09:01:44.118Z,15.37
2018-11-26T09:04:17.449Z,11.63
2018-11-26T09:06:45.527Z,6.30
2018-11-26T09:09:13.653Z,13.77
2018-11-26T09:11:41.791Z,12.00
2018-11-26T09:14:09.869Z,10.10
2018-11-26T09:16:37.928Z,10.77
2018-11-26T09:19:06.207Z,6.67
2018-11-26T09:21:34.253Z,11.97
2018-11-26T09:24:02.306Z,13.07
2018-11-26T09:26:30.644Z,16.13
2018-11-26T09:28:58.710Z,12.20
2018-11-26T09:31:26.744Z,4.27
2018-11-26T09:33:54.815Z,12.93
2018-11-26T09:36:22.893Z,13.93
2018-11-26T09:38:50.940Z,5.53
2018-11-26T09:41:19.482Z,14.37
2018-11-26T09:43:47.518Z,4.17
2018-11-26T09:46:15.574Z,6.53
2018-11-26T09:48:44.060Z,6.73
2018-11-26T09:51:14.351Z,10.33
2018-11-26T09:53:40.277Z,13.23
2018-11-26T09:56:08.504Z,12.63
2018-11-26T09:58:36.661Z,12.07
2018-11-26T10:01:05.219Z,12.70
2018-11-26T10:03:33.853Z,9.87
2018-11-26T10:06:01.952Z,9.50
2018-11-26T10:08:30.024Z,10.83
2018-11-26T10:10:58.185Z,12.07
2018-11-26T10:13:26.309Z,7.13
2018-11-26T10:15:54.552Z,12.83
2018-11-26T10:18:22.793Z,11.93
2018-11-26T10:20:50.841Z,11.80
2018-11-26T10:23:18.894Z,12.70
2018-11-26T10:25:47.012Z,11.77
2018-11-26T10:28:15.100Z,5.27
2018-11-26T10:30:43.177Z,10.63
2018-11-26T10:33:14.829Z,11.83
2018-11-26T10:35:39.394Z,9.07
2018-11-26T10:38:07.513Z,10.63
2018-11-26T10:40:35.612Z,8.90
2018-11-26T10:43:03.676Z,5.17
2018-11-26T10:45:31.741Z,6.07
2018-11-26T10:47:59.891Z,8.93
2018-11-26T10:50:27.953Z,4.43
2018-11-26T10:52:57.225Z,6.17
2018-11-26T10:55:28.599Z,3.37
2018-11-26T10:57:56.679Z,8.67
2018-11-26T11:00:30.693Z,5.87
2018-11-26T11:02:58.765Z,7.63
2018-11-26T11:05:27.062Z,6.37
2018-11-26T11:07:55.281Z,5.73
2018-11-26T11:10:26.675Z,9.17
2018-11-26T11:12:54.750Z,5.53
2018-11-26T11:15:22.804Z,6.00
2018-11-26T11:17:50.891Z,11.73
2018-11-26T11:20:20.027Z,4.03
2018-11-26T11:22:48.088Z,4.97
2018-11-26T11:25:17.045Z,5.33
2018-11-26T11:27:45.164Z,8.67
2018-11-26T11:30:15.262Z,8.83
2018-11-26T11:32:43.368Z,9.10
2018-11-26T11:35:12.287Z,8.67
2018-11-26T11:37:40.890Z,6.83
2018-11-26T11:40:13.630Z,4.23
2018-11-26T11:42:41.686Z,7.33
2018-11-26T11:45:11.030Z,5.67
2018-11-26T11:47:39.083Z,2.73
2018-11-26T11:50:08.899Z,5.97
2018-11-26T11:52:37.836Z,8.03
2018-11-26T11:55:07.804Z,8.98
2018-11-26T11:57:36.023Z,10.80
2018-11-26T12:00:05.642Z,10.73
2018-11-26T12:02:38.046Z,8.90
2018-11-26T12:05:07.206Z,4.53
2018-11-26T12:07:35.524Z,5.47
2018-11-26T12:10:04.449Z,8.60
2018-11-26T12:12:32.498Z,6.87
2018-11-26T12:15:00.539Z,11.13
2018-11-26T12:17:28.733Z,8.63
2018-11-26T12:19:56.780Z,8.43
2018-11-26T12:22:24.854Z,5.70
2018-11-26T12:24:53.238Z,6.17
2018-11-26T12:27:21.293Z,9.63
2018-11-26T12:29:49.332Z,7.63
2018-11-26T12:32:17.613Z,6.35
2018-11-26T12:34:45.718Z,7.23
2018-11-26T12:37:13.796Z,6.13
2018-11-26T12:39:41.874Z,3.93
2018-11-26T12:42:09.955Z,4.13
2018-11-26T12:44:44.834Z,8.53
2018-11-26T12:47:12.883Z,5.87
2018-11-26T12:49:41.050Z,5.97
2018-11-26T12:52:09.118Z,9.40
2018-11-26T12:54:37.247Z,8.03
2018-11-26T12:57:06.074Z,4.93
2018-11-26T12:59:34.279Z,6.47
2018-11-26T13:02:02.347Z,7.57
2018-11-26T13:04:31.282Z,8.97
2018-11-26T13:06:59.590Z,11.37
2018-11-26T13:09:28.954Z,12.63
2018-11-26T13:11:57.001Z,10.07
2018-11-26T13:14:25.075Z,10.43
2018-11-26T13:16:53.140Z,10.47
2018-11-26T13:19:21.353Z,4.83
2018-11-26T13:21:49.394Z,5.00
2018-11-26T13:24:17.482Z,10.87
2018-11-26T13:26:45.682Z,11.70
2018-11-26T13:29:14.381Z,6.90
2018-11-26T13:31:42.215Z,12.40
2018-11-26T13:34:10.317Z,10.27
2018-11-26T13:36:38.488Z,6.60
2018-11-26T13:39:08.555Z,10.13
2018-11-26T13:41:37.031Z,6.67
2018-11-26T13:44:05.753Z,12.97
2018-11-26T13:46:33.834Z,10.80
2018-11-26T13:49:01.941Z,13.03
2018-11-26T13:51:30.045Z,10.03
2018-11-26T13:53:59.632Z,11.97
2018-11-26T13:56:27.683Z,14.00
2018-11-26T13:58:55.738Z,13.50
2018-11-26T14:01:23.822Z,14.17
2018-11-26T14:03:51.859Z,11.20
2018-11-26T14:06:19.938Z,14.83
2018-11-26T14:08:48.332Z,10.27
2018-11-26T14:11:16.610Z,9.07
2018-11-26T14:13:44.675Z,10.07
2018-11-26T14:16:12.928Z,13.43
2018-11-26T14:18:41.062Z,7.73
2018-11-26T14:21:09.142Z,9.30
2018-11-26T14:23:37.880Z,8.33
2018-11-26T14:26:05.970Z,9.57
2018-11-26T14:28:34.110Z,9.27
2018-11-26T14:31:02.379Z,11.00
2018-11-26T14:33:30.476Z,7.93
2018-11-26T14:35:58.611Z,8.83
2018-11-26T14:38:26.818Z,5.70
2018-11-26T14:40:55.649Z,8.40
2018-11-26T14:43:23.811Z,4.87
2018-11-26T14:45:52.185Z,7.03
2018-11-26T14:48:20.253Z,5.33
2018-11-26T14:50:48.446Z,4.90
2018-11-26T14:53:17.141Z,9.85
2018-11-26T14:55:45.210Z,10.33
2018-11-26T14:58:13.334Z,10.53
2018-11-26T15:00:42.980Z,11.10
2018-11-26T15:03:11.168Z,11.30
2018-11-26T15:05:39.265Z,12.03
2018-11-26T15:08:07.901Z,11.73
2018-11-26T15:10:39.703Z,6.10
2018-11-26T15:13:08.158Z,6.43
2018-11-26T15:15:36.336Z,3.80
2018-11-26T15:18:04.438Z,7.23
2018-11-26T15:20:33.015Z,10.43
2018-11-26T15:23:01.917Z,10.20
2018-11-26T15:25:32.386Z,7.63
2018-11-26T15:28:03.618Z,8.67
2018-11-26T15:30:31.722Z,9.87
2018-11-26T15:32:59.803Z,7.80
2018-11-26T15:35:34.748Z,7.70
2018-11-26T15:38:02.817Z,10.27
2018-11-26T15:40:31.827Z,10.57
2018-11-26T15:42:59.886Z,10.30
2018-11-26T15:45:28.763Z,7.20
2018-11-26T15:47:59.337Z,10.07
2018-11-26T15:50:27.403Z,8.73
2018-11-26T15:52:55.478Z,11.07
2018-11-26T15:55:23.938Z,2.57
2018-11-26T15:57:52.045Z,10.17
2018-11-26T16:00:21.943Z,11.73
2018-11-26T16:02:50.399Z,10.67
2018-11-26T16:05:20.678Z,12.17
2018-11-26T16:07:49.398Z,10.73
2018-11-26T16:10:17.475Z,11.10
2018-11-26T16:12:47.284Z,10.17
2018-11-26T16:15:17.133Z,10.70
2018-11-26T16:17:45.192Z,8.97
2018-11-26T16:20:14.644Z,9.00
2018-11-26T16:22:42.750Z,4.97
2018-11-26T16:25:12.193Z,5.73
2018-11-26T16:27:40.289Z,4.87
2018-11-26T16:30:10.449Z,8.70
2018-11-26T16:32:38.674Z,7.83
2018-11-26T16:35:19.196Z,8.93
2018-11-26T16:37:47.249Z,10.20
2018-11-26T16:40:16.166Z,11.73
2018-11-26T16:42:44.275Z,7.13
2018-11-26T16:45:13.853Z,8.43
2018-11-26T16:47:42.142Z,6.73
2018-11-26T16:50:11.533Z,9.13
2018-11-26T16:52:39.631Z,8.93
2018-11-26T16:55:09.256Z,12.23
2018-11-26T16:57:37.386Z,9.27
2018-11-26T17:00:09.874Z,6.93
2018-11-26T17:02:38.196Z,6.87
2018-11-26T17:05:08.384Z,8.10
2018-11-26T17:07:36.420Z,7.57
2018-11-26T17:10:05.658Z,8.00
2018-11-26T17:12:33.764Z,10.93
2018-11-26T17:15:01.909Z,8.80
2018-11-26T17:17:30.246Z,7.97
2018-11-26T17:19:58.300Z,7.33
2018-11-26T17:22:26.764Z,6.07
2018-11-26T17:24:54.849Z,8.93
2018-11-26T17:27:22.916Z,5.80
2018-11-26T17:29:51.262Z,6.67
2018-11-26T17:32:19.446Z,9.00
2018-11-26T17:34:47.544Z,10.97
2018-11-26T17:37:15.573Z,7.03
2018-11-26T17:39:43.674Z,6.67
2018-11-26T17:42:11.762Z,10.73
2018-11-26T17:44:39.830Z,8.73
2018-11-26T17:47:07.889Z,4.37
2018-11-26T17:49:35.934Z,5.17
2018-11-26T17:52:04.041Z,2.57
2018-11-26T17:54:32.078Z,6.67
2018-11-26T17:57:00.149Z,3.00
2018-11-26T17:59:28.340Z,3.17
2018-11-26T18:01:56.412Z,7.63
2018-11-26T18:04:25.011Z,5.93
2018-11-26T18:06:53.082Z,8.23
2018-11-26T18:09:22.875Z,6.77
2018-11-26T18:11:49.241Z,5.13
2018-11-26T18:14:17.357Z,4.50
2018-11-26T18:16:45.461Z,3.97
2018-11-26T18:19:13.770Z,5.97
2018-11-26T18:21:42.193Z,6.00
2018-11-26T18:24:10.952Z,3.40
2018-11-26T18:26:39.053Z,5.87
2018-11-26T18:29:08.321Z,6.47
2018-11-26T18:31:36.406Z,4.10
2018-11-26T18:34:04.470Z,8.03
2018-11-26T18:36:32.840Z,6.40
2018-11-26T18:39:00.965Z,4.60
2018-11-26T18:41:29.030Z,4.90
2018-11-26T18:43:57.118Z,6.90
2018-11-26T18:46:25.334Z,4.90
2018-11-26T18:48:53.581Z,5.83
2018-11-26T18:51:21.734Z,6.43
2018-11-26T18:53:50.019Z,6.07
2018-11-26T18:56:18.198Z,6.77
2018-11-26T18:58:47.025Z,7.87
2018-11-26T19:01:15.191Z,6.73
2018-11-26T19:03:43.843Z,7.33
2018-11-26T19:06:12.143Z,6.97
2018-11-26T19:08:40.420Z,5.70
2018-11-26T19:11:11.632Z,8.73
2018-11-26T19:13:49.982Z,8.20
2018-11-26T19:16:20.509Z,9.27
2018-11-26T19:18:48.720Z,3.20
2018-11-26T19:21:16.922Z,4.87
2018-11-26T19:23:45.033Z,8.70
2018-11-26T19:26:13.134Z,6.13
2018-11-26T19:28:41.233Z,6.77
2018-11-26T19:31:10.126Z,9.57
2018-11-26T19:33:38.306Z,8.97
2018-11-26T19:36:07.112Z,6.90
2018-11-26T19:38:35.334Z,8.67
2018-11-26T19:41:03.411Z,8.93
2018-11-26T19:43:31.475Z,7.53
2018-11-26T19:45:59.799Z,7.80
2018-11-26T19:48:27.890Z,7.77
2018-11-26T19:50:55.933Z,9.63
2018-11-26T19:53:24.214Z,7.47
2018-11-26T19:55:52.942Z,8.83
2018-11-26T19:58:21.017Z,6.87
2018-11-26T20:00:49.100Z,7.53
2018-11-26T20:03:22.837Z,8.17
2018-11-26T20:06:02.678Z,9.53
2018-11-26T20:08:30.749Z,9.00
2018-11-26T20:10:58.831Z,9.83
2018-11-26T20:13:27.246Z,9.63
2018-11-26T20:15:55.654Z,9.63
2018-11-26T20:18:28.329Z,8.57
2018-11-26T20:20:51.961Z,9.37
2018-11-26T20:23:20.351Z,9.23
2018-11-26T20:25:48.394Z,9.63
2018-11-26T20:28:16.860Z,8.90
2018-11-26T20:30:44.915Z,9.73
2018-11-26T20:33:12.999Z,11.63
2018-11-26T20:35:42.429Z,10.27
2018-11-26T20:38:12.038Z,9.37
2018-11-26T20:40:40.117Z,8.27
2018-11-26T20:43:09.902Z,10.00
2018-11-26T20:45:39.425Z,7.47
2018-11-26T20:48:08.305Z,11.13
2018-11-26T20:50:36.531Z,8.30
2018-11-26T20:53:04.669Z,12.57
2018-11-26T20:55:32.819Z,10.40
2018-11-26T20:58:00.877Z,11.83
2018-11-26T21:00:29.361Z,5.93
2018-11-26T21:03:04.270Z,8.93
2018-11-26T21:05:32.685Z,7.87
2018-11-26T21:08:00.774Z,11.97
2018-11-26T21:10:28.849Z,8.20
2018-11-26T21:12:57.090Z,12.47
2018-11-26T21:15:25.191Z,11.10
2018-11-26T21:17:54.380Z,11.33
2018-11-26T21:20:25.206Z,13.50
2018-11-26T21:22:53.754Z,12.67
2018-11-26T21:25:22.027Z,10.40
2018-11-26T21:27:50.225Z,11.27
2018-11-26T21:30:19.029Z,8.77
2018-11-26T21:32:47.225Z,9.13
2018-11-26T21:35:16.358Z,10.93
2018-11-26T21:37:45.554Z,11.47
2018-11-26T21:40:20.050Z,11.97
2018-11-26T21:42:42.912Z,12.67
2018-11-26T21:45:13.208Z,3.87
2018-11-26T21:47:41.314Z,9.70
2018-11-26T21:50:12.022Z,8.83
2018-11-26T21:52:40.496Z,11.18
2018-11-26T21:55:12.090Z,7.90
2018-11-26T21:57:40.159Z,9.30
2018-11-26T22:00:40.861Z,12.37
2018-11-26T22:03:10.365Z,11.13
2018-11-26T22:05:39.155Z,12.47
2018-11-26T22:08:07.845Z,13.93
2018-11-26T22:10:37.004Z,12.40
2018-11-26T22:13:06.005Z,10.83
2018-11-26T22:15:34.162Z,9.87
2018-11-26T22:18:02.339Z,13.33
2018-11-26T22:20:31.130Z,12.87
2018-11-26T22:22:59.197Z,10.23
2018-11-26T22:25:27.557Z,11.17
2018-11-26T22:27:55.657Z,9.50
2018-11-26T22:30:25.682Z,10.00
2018-11-26T22:32:53.746Z,11.93
2018-11-26T22:35:21.802Z,11.27
2018-11-26T22:37:50.084Z,8.87
2018-11-26T22:40:19.019Z,11.37
2018-11-26T22:42:47.174Z,11.63
2018-11-26T22:45:45.997Z,11.83
2018-11-26T22:48:14.216Z,10.57
2018-11-26T22:50:44.337Z,10.27
2018-11-26T22:53:12.392Z,11.00
2018-11-26T22:55:40.546Z,11.53
2018-11-26T22:58:10.212Z,10.00
2018-11-26T23:00:47.146Z,8.17
2018-11-26T23:03:16.768Z,10.13
2018-11-26T23:05:44.801Z,8.37
2018-11-26T23:08:12.957Z,11.80
2018-11-26T23:10:41.202Z,10.97
2018-11-26T23:13:09.631Z,11.23
2018-11-26T23:15:38.853Z,11.77
2018-11-26T23:18:07.236Z,9.53
2018-11-26T23:20:35.316Z,11.17
2018-11-26T23:23:03.375Z,9.70
2018-11-26T23:25:31.871Z,9.77
2018-11-26T23:27:59.942Z,10.23
2018-11-26T23:30:28.910Z,7.83
2018-11-26T23:32:58.165Z,9.57
2018-11-26T23:35:26.221Z,8.93
2018-11-26T23:37:54.322Z,10.80
2018-11-26T23:40:22.367Z,9.93
2018-11-26T23:42:50.939Z,11.77
2018-11-26T23:45:20.170Z,9.93
2018-11-26T23:47:48.330Z,10.83
2018-11-26T23:50:16.945Z,10.80
2018-11-26T23:52:45.397Z,12.07
2018-11-26T23:55:18.296Z,11.27
2018-11-26T23:57:46.449Z,11.10
